Time;durP1;ratioP1;P1;durP2;ratioP2;P2;SDS_P1;SDS_P2;PMS_P1;PMS_P2;Temp;Humidity;BMP_temperature;BMP_pressure;BME280_temperature;BME280_humidity;BME280_pressure;Samples;Min_cycle;Max_cycle;Signal;HPM_P1;HPM_P2
2023/08/20 00:01:25;;;;;;;6.30;4.60;;;;;;;29.81;38.70;101013.70;103669;1290;61404;-81
2023/08/20 00:03:51;;;;;;;6.40;4.60;;;;;;;29.80;38.78;101008.29;103668;1284;65801;-81
2023/08/20 00:06:17;;;;;;;5.00;4.10;;;;;;;29.81;38.78;101006.45;103762;1285;61368;-82
2023/08/20 00:08:43;;;;;;;5.20;4.30;;;;;;;29.80;38.68;101006.66;103603;1285;61852;-81
2023/08/20 00:11:12;;;;;;;5.90;4.40;;;;;;;29.80;38.73;101003.42;103665;1284;63770;-82
2023/08/20 00:13:37;;;;;;;5.80;4.70;;;;;;;29.80;38.77;101003.23;103641;1284;66803;-81
2023/08/20 00:16:03;;;;;;;5.00;4.20;;;;;;;29.80;38.71;101003.98;103737;1284;61449;-81
2023/08/20 00:18:30;;;;;;;6.20;4.40;;;;;;;29.79;38.82;100996.42;103746;1285;61292;-81
2023/08/20 00:20:55;;;;;;;6.90;4.50;;;;;;;29.79;38.85;100991.70;103598;1284;61356;-81
2023/08/20 00:23:21;;;;;;;5.90;4.30;;;;;;;29.80;38.80;100988.26;103832;1284;61384;-81
2023/08/20 00:25:47;;;;;;;5.90;4.50;;;;;;;29.79;38.89;100986.61;103733;1285;61399;-81
2023/08/20 00:28:13;;;;;;;5.10;4.10;;;;;;;29.79;38.66;100986.08;103772;1284;61466;-81
2023/08/20 00:30:40;;;;;;;5.30;4.40;;;;;;;29.79;38.82;100988.15;103634;1285;61413;-81
2023/08/20 00:33:05;;;;;;;5.60;4.20;;;;;;;29.79;38.94;100988.63;103604;1285;61459;-81
2023/08/20 00:35:31;;;;;;;6.50;4.10;;;;;;;29.79;38.76;100988.30;103716;1285;61791;-81
2023/08/20 00:37:57;;;;;;;5.20;4.40;;;;;;;29.79;38.78;100989.60;103785;1285;61390;-82
2023/08/20 00:40:23;;;;;;;6.10;4.80;;;;;;;29.79;38.81;100993.21;103876;1285;61406;-81
2023/08/20 00:42:49;;;;;;;5.70;4.90;;;;;;;29.79;38.83;100998.27;103641;1285;61365;-81
2023/08/20 00:45:16;;;;;;;5.00;4.30;;;;;;;29.79;38.75;101000.80;103651;1285;63755;-81
2023/08/20 00:47:42;;;;;;;6.00;4.40;;;;;;;29.79;38.84;101007.02;103685;1288;65882;-81
2023/08/20 00:50:09;;;;;;;6.30;4.30;;;;;;;29.78;38.79;101006.15;103809;1285;61380;-82
2023/08/20 00:52:35;;;;;;;7.70;5.00;;;;;;;29.78;38.92;101001.29;103634;1284;61313;-81
2023/08/20 00:55:06;;;;;;;5.00;4.30;;;;;;;29.78;38.85;101000.48;103733;1285;61373;-82
2023/08/20 00:57:32;;;;;;;5.50;4.10;;;;;;;29.78;38.77;101002.77;103696;1285;65847;-81
2023/08/20 00:59:58;;;;;;;5.80;4.30;;;;;;;29.79;38.84;101003.58;103659;1284;61342;-81
2023/08/20 01:02:23;;;;;;;6.00;4.60;;;;;;;29.78;38.81;101002.40;103639;1284;61497;-81
2023/08/20 01:04:49;;;;;;;6.00;4.50;;;;;;;29.77;38.80;101002.60;103658;1284;61379;-81
2023/08/20 01:07:14;;;;;;;5.50;4.40;;;;;;;29.78;38.80;101005.83;103713;1288;61369;-81
2023/08/20 01:10:11;;;;;;;6.30;4.50;;;;;;;29.78;38.70;101003.83;103765;1284;65640;-81
2023/08/20 01:12:37;;;;;;;5.90;4.60;;;;;;;29.77;38.87;101002.67;103800;1285;61594;-81
2023/08/20 01:15:03;;;;;;;5.50;4.50;;;;;;;29.77;38.94;101000.68;103738;1284;61384;-81
2023/08/20 01:17:31;;;;;;;5.70;4.50;;;;;;;29.77;38.86;100998.14;103699;1285;61290;-81
2023/08/20 01:19:57;;;;;;;6.40;4.60;;;;;;;29.77;38.84;101003.17;103692;1284;66077;-81
2023/08/20 01:22:54;;;;;;;6.00;4.60;;;;;;;29.76;38.86;101007.05;103710;1284;61492;-81
2023/08/20 01:25:46;;;;;;;6.50;4.80;;;;;;;29.75;38.84;101005.35;103705;1285;61399;-81
2023/08/20 01:28:26;;;;;;;5.90;4.70;;;;;;;29.76;38.80;101004.60;103775;1284;63901;-81
2023/08/20 01:30:54;;;;;;;5.70;4.70;;;;;;;29.75;38.91;101000.81;103662;1285;65885;-81
2023/08/20 01:33:19;;;;;;;5.60;4.50;;;;;;;29.75;38.87;100996.83;103845;1285;62403;-81
2023/08/20 01:35:46;;;;;;;6.30;5.00;;;;;;;29.75;38.91;100997.89;104046;1284;61404;-83
2023/08/20 01:38:12;;;;;;;5.80;4.70;;;;;;;29.75;38.86;101000.07;104358;1284;61327;-83
2023/08/20 01:40:37;;;;;;;6.00;4.60;;;;;;;29.76;38.95;101003.13;104124;1285;61301;-82
2023/08/20 01:43:03;;;;;;;6.30;4.50;;;;;;;29.76;39.02;101000.38;104076;1284;61465;-81
2023/08/20 01:45:28;;;;;;;7.10;4.50;;;;;;;29.76;38.87;101000.35;103806;1284;61391;-81
2023/08/20 01:47:54;;;;;;;6.50;4.80;;;;;;;29.77;38.91;100999.05;103654;1284;61484;-81
2023/08/20 01:50:21;;;;;;;5.80;4.50;;;;;;;29.77;38.82;100999.39;103709;1285;61343;-81
2023/08/20 01:52:47;;;;;;;5.80;4.20;;;;;;;29.77;38.90;100999.40;103767;1284;61321;-81
2023/08/20 01:55:14;;;;;;;5.70;4.80;;;;;;;29.77;38.84;100997.97;103680;1284;61389;-81
2023/08/20 01:57:40;;;;;;;6.30;4.80;;;;;;;29.76;38.78;100993.82;103724;1284;61293;-82
2023/08/20 02:00:08;;;;;;;5.90;4.40;;;;;;;29.77;38.93;100997.05;103756;1285;61387;-81
2023/08/20 02:02:34;;;;;;;6.60;4.70;;;;;;;29.76;38.86;101002.53;103764;1284;66010;-81
2023/08/20 02:05:00;;;;;;;6.00;4.50;;;;;;;29.76;38.86;101002.55;103623;1288;61378;-82
2023/08/20 02:07:26;;;;;;;6.90;4.70;;;;;;;29.75;38.97;101001.88;103666;1284;61300;-81
2023/08/20 02:09:52;;;;;;;7.20;4.70;;;;;;;29.76;38.86;101000.93;103713;1285;61374;-81
2023/08/20 02:12:18;;;;;;;6.20;5.00;;;;;;;29.76;38.80;101002.77;103730;1289;61334;-81
2023/08/20 02:14:43;;;;;;;5.70;4.30;;;;;;;29.75;39.06;100999.20;103485;1284;63008;-81
2023/08/20 02:17:09;;;;;;;5.40;4.40;;;;;;;29.75;38.93;100999.41;103880;1284;61401;-82
2023/08/20 02:19:35;;;;;;;5.50;4.40;;;;;;;29.75;38.85;101001.77;103659;1285;61395;-81
2023/08/20 02:22:00;;;;;;;6.30;4.70;;;;;;;29.74;38.91;100998.91;103496;1284;63867;-81
2023/08/20 02:24:26;;;;;;;5.70;4.90;;;;;;;29.74;38.88;101000.58;103625;1284;61779;-81
2023/08/20 02:26:53;;;;;;;6.60;5.10;;;;;;;29.74;38.90;101002.38;103631;1284;61462;-81
2023/08/20 02:29:18;;;;;;;6.10;4.60;;;;;;;29.73;38.89;100999.55;103676;1284;61452;-81
2023/08/20 02:31:44;;;;;;;6.10;4.50;;;;;;;29.74;39.01;101000.61;103754;1284;61384;-81
2023/08/20 02:34:09;;;;;;;6.20;4.50;;;;;;;29.74;38.99;101002.81;103819;1289;61322;-82
2023/08/20 02:36:35;;;;;;;6.70;4.90;;;;;;;29.74;38.86;101003.50;103607;1288;65664;-81
2023/08/20 02:39:00;;;;;;;7.00;4.70;;;;;;;29.74;39.02;101004.63;103545;1288;61330;-81
2023/08/20 02:41:26;;;;;;;6.10;4.50;;;;;;;29.74;38.83;101006.05;103565;1287;62268;-81
2023/08/20 02:43:51;;;;;;;6.80;5.00;;;;;;;29.74;38.96;101008.42;103336;1288;61392;-81
2023/08/20 02:46:17;;;;;;;5.80;4.70;;;;;;;29.74;38.92;101010.81;103615;1287;61984;-81
2023/08/20 02:48:43;;;;;;;6.00;4.80;;;;;;;29.73;38.85;101009.18;103442;1288;64665;-81
2023/08/20 02:51:08;;;;;;;5.90;4.80;;;;;;;29.73;39.01;101012.67;103571;1287;61563;-81
2023/08/20 02:53:34;;;;;;;7.30;4.60;;;;;;;29.73;39.01;101015.23;103601;1288;61416;-81
2023/08/20 02:55:59;;;;;;;5.50;4.70;;;;;;;29.73;38.86;101012.34;103381;1288;63113;-81
2023/08/20 02:58:25;;;;;;;6.20;4.80;;;;;;;29.72;38.79;101012.20;103412;1289;61504;-81
2023/08/20 03:00:51;;;;;;;6.30;4.60;;;;;;;29.73;38.98;101015.98;103573;1287;65777;-81
2023/08/20 03:03:16;;;;;;;6.80;5.10;;;;;;;29.73;38.85;101017.81;103401;1291;61361;-81
2023/08/20 03:05:42;;;;;;;6.10;4.60;;;;;;;29.72;38.99;101023.48;103203;1288;61679;-81
2023/08/20 03:08:08;;;;;;;5.50;4.60;;;;;;;29.72;38.92;101024.52;103786;1284;61581;-82
2023/08/20 03:10:33;;;;;;;6.30;4.80;;;;;;;29.72;39.05;101026.19;103676;1287;61379;-81
2023/08/20 03:13:03;;;;;;;6.50;4.50;;;;;;;29.72;39.01;101031.63;103644;1284;65530;-81
2023/08/20 03:15:29;;;;;;;6.50;5.10;;;;;;;29.72;38.95;101029.84;103594;1284;61627;-81
2023/08/20 03:17:57;;;;;;;6.10;4.90;;;;;;;29.72;38.94;101031.50;103807;1284;61317;-81
2023/08/20 03:20:24;;;;;;;5.70;4.50;;;;;;;29.71;38.93;101032.42;103695;1284;61510;-81
2023/08/20 03:22:51;;;;;;;6.60;5.00;;;;;;;29.71;39.06;101028.65;103707;1284;65970;-81
2023/08/20 03:25:17;;;;;;;6.30;4.50;;;;;;;29.71;38.96;101033.17;103794;1289;61270;-81
2023/08/20 03:27:42;;;;;;;6.40;4.80;;;;;;;29.71;38.99;101033.88;103761;1284;62075;-81
2023/08/20 03:30:08;;;;;;;5.90;4.90;;;;;;;29.71;39.10;101036.81;103659;1284;61293;-82
2023/08/20 03:32:34;;;;;;;5.80;4.70;;;;;;;29.71;38.93;101034.63;103699;1285;61958;-81
2023/08/20 03:35:00;;;;;;;6.40;4.70;;;;;;;29.72;39.09;101038.58;103721;1288;61285;-81
2023/08/20 03:37:25;;;;;;;5.80;5.00;;;;;;;29.71;38.98;101038.59;103732;1288;61504;-81
2023/08/20 03:39:51;;;;;;;7.20;5.00;;;;;;;29.71;39.10;101040.45;103828;1284;61392;-81
2023/08/20 03:42:17;;;;;;;6.30;4.60;;;;;;;29.71;39.07;101041.33;103710;1287;61411;-81
2023/08/20 03:44:43;;;;;;;6.60;5.00;;;;;;;29.71;39.13;101037.97;103596;1284;61427;-81
2023/08/20 03:47:08;;;;;;;6.80;4.70;;;;;;;29.71;39.01;101037.05;103660;1284;62100;-81
2023/08/20 03:49:34;;;;;;;6.30;4.90;;;;;;;29.72;39.07;101037.84;103612;1284;62353;-81
2023/08/20 03:52:01;;;;;;;5.40;4.60;;;;;;;29.71;39.02;101034.67;103720;1284;61388;-81
2023/08/20 03:54:29;;;;;;;;;;;;;;;29.71;39.04;101032.52;103802;1285;64002;-81
2023/08/20 03:56:55;;;;;;;6.50;5.00;;;;;;;29.68;39.07;101029.66;103770;1289;61334;-81
2023/08/20 03:59:21;;;;;;;6.70;4.70;;;;;;;29.69;38.99;101026.16;103754;1285;61217;-81
2023/08/20 04:01:47;;;;;;;6.80;5.00;;;;;;;29.69;39.08;101023.27;103718;1285;61392;-81
2023/08/20 04:04:12;;;;;;;7.60;5.00;;;;;;;29.70;39.00;101027.70;103648;1290;61370;-81
2023/08/20 04:06:38;;;;;;;6.70;4.70;;;;;;;29.69;39.02;101022.52;103803;1284;62983;-81
2023/08/20 04:09:04;;;;;;;7.50;5.00;;;;;;;29.70;39.07;101021.55;103743;1285;61369;-81
2023/08/20 04:11:29;;;;;;;7.70;5.00;;;;;;;29.70;39.07;101017.53;103691;1284;61305;-81
2023/08/20 04:13:55;;;;;;;7.30;5.10;;;;;;;29.70;38.99;101020.77;103729;1285;61394;-81
2023/08/20 04:16:20;;;;;;;6.50;4.60;;;;;;;29.70;38.99;101023.48;103777;1285;61302;-81
2023/08/20 04:18:46;;;;;;;6.20;4.70;;;;;;;29.70;39.08;101018.98;103680;1284;61911;-81
2023/08/20 04:21:12;;;;;;;6.00;4.90;;;;;;;29.70;38.95;101019.88;103654;1290;61465;-81
2023/08/20 04:23:37;;;;;;;6.50;4.80;;;;;;;29.71;39.12;101020.73;103656;1289;61286;-81
2023/08/20 04:26:03;;;;;;;7.20;5.00;;;;;;;29.71;39.12;101023.63;103716;1284;62519;-81
2023/08/20 04:28:28;;;;;;;6.10;4.50;;;;;;;29.71;38.97;101020.86;103883;1287;61270;-81
2023/08/20 04:30:54;;;;;;;6.40;5.10;;;;;;;29.71;39.04;101024.70;103735;1289;61315;-81
2023/08/20 04:33:20;;;;;;;6.40;4.90;;;;;;;29.72;39.13;101028.08;103699;1284;61411;-80
2023/08/20 04:35:46;;;;;;;6.40;4.90;;;;;;;29.71;39.02;101029.38;103788;1284;61373;-81
2023/08/20 04:38:12;;;;;;;6.70;4.70;;;;;;;29.71;39.09;101025.94;103709;1289;61386;-81
2023/08/20 04:40:37;;;;;;;6.50;4.70;;;;;;;29.71;38.97;101026.48;103598;1284;61362;-82
2023/08/20 04:43:03;;;;;;;6.30;5.00;;;;;;;29.71;38.95;101028.61;103711;1286;61406;-81
2023/08/20 04:45:29;;;;;;;6.50;4.80;;;;;;;29.71;38.99;101027.91;103633;1285;61843;-81
2023/08/20 04:47:54;;;;;;;7.80;4.50;;;;;;;29.72;38.95;101028.17;103680;1285;61398;-81
2023/08/20 04:50:20;;;;;;;6.80;4.90;;;;;;;29.72;38.96;101027.30;103732;1285;61458;-81
2023/08/20 04:52:46;;;;;;;6.70;5.00;;;;;;;29.72;38.97;101024.20;103672;1284;61412;-81
2023/08/20 04:55:12;;;;;;;6.30;4.90;;;;;;;29.71;39.10;101021.52;103618;1284;61386;-81
2023/08/20 04:57:38;;;;;;;7.50;5.00;;;;;;;29.72;38.91;101023.99;103700;1285;61356;-81
2023/08/20 05:00:05;;;;;;;5.60;4.40;;;;;;;29.73;38.85;101023.59;103682;1284;61886;-82
2023/08/20 05:02:30;;;;;;;6.30;4.60;;;;;;;29.72;38.99;101022.71;103711;1284;61341;-81
2023/08/20 05:04:56;;;;;;;5.90;4.80;;;;;;;29.73;39.13;101027.75;103693;1284;61372;-81
2023/08/20 05:07:22;;;;;;;5.60;4.80;;;;;;;29.73;38.89;101023.39;103714;1290;61321;-81
2023/08/20 05:09:47;;;;;;;6.40;4.80;;;;;;;29.73;38.90;101019.41;103691;1285;61472;-81
2023/08/20 05:12:13;;;;;;;6.80;4.90;;;;;;;29.73;39.07;101020.50;103660;1287;61369;-81
2023/08/20 05:14:38;;;;;;;6.50;4.60;;;;;;;29.74;38.98;101019.86;103627;1285;61484;-81
2023/08/20 05:17:05;;;;;;;6.40;4.90;;;;;;;29.73;39.00;101020.42;103725;1284;61983;-81
2023/08/20 05:19:30;;;;;;;6.00;4.80;;;;;;;29.74;39.05;101019.11;103747;1290;62316;-81
2023/08/20 05:21:58;;;;;;;5.40;4.70;;;;;;;29.73;38.94;101021.90;103686;1284;61328;-81
2023/08/20 05:24:27;;;;;;;5.80;4.50;;;;;;;29.74;38.99;101028.67;103744;1285;61382;-81
2023/08/20 05:27:10;;;;;;;5.80;4.50;;;;;;;29.75;39.06;101027.72;103661;1290;65796;-81
2023/08/20 05:29:36;;;;;;;6.40;4.90;;;;;;;29.75;39.16;101033.80;103652;1285;61309;-81
2023/08/20 05:32:02;;;;;;;5.10;4.40;;;;;;;29.76;39.09;101037.19;103759;1284;61445;-82
2023/08/20 05:34:28;;;;;;;4.90;4.40;;;;;;;29.77;39.05;101035.28;103787;1285;61377;-81
2023/08/20 05:36:53;;;;;;;6.10;5.00;;;;;;;29.78;39.03;101035.59;103656;1285;61455;-81
2023/08/20 05:39:19;;;;;;;5.50;4.60;;;;;;;29.78;38.96;101040.42;103724;1284;62138;-81
2023/08/20 05:41:44;;;;;;;5.80;4.40;;;;;;;29.79;38.96;101036.89;103689;1284;61329;-81
2023/08/20 05:44:10;;;;;;;6.30;4.10;;;;;;;29.80;38.87;101036.48;103726;1285;61474;-81
2023/08/20 05:46:36;;;;;;;6.00;4.50;;;;;;;29.81;38.97;101040.38;103962;1284;61383;-81
2023/08/20 05:49:01;;;;;;;5.50;4.40;;;;;;;29.81;38.85;101038.85;103701;1285;61375;-81
2023/08/20 05:51:27;;;;;;;5.40;4.70;;;;;;;29.82;38.92;101040.59;103756;1285;61365;-81
2023/08/20 05:53:52;;;;;;;6.30;4.70;;;;;;;29.83;38.90;101040.69;103730;1284;61298;-81
2023/08/20 05:56:18;;;;;;;6.50;4.90;;;;;;;29.84;38.95;101043.95;103760;1288;61384;-81
2023/08/20 05:58:44;;;;;;;7.10;4.70;;;;;;;29.85;38.90;101047.55;103530;1290;61338;-81
2023/08/20 06:01:09;;;;;;;6.30;4.80;;;;;;;29.85;38.81;101047.50;103835;1288;62328;-81
2023/08/20 06:03:35;;;;;;;5.90;4.60;;;;;;;29.86;38.90;101054.50;104030;1284;61347;-82
2023/08/20 06:06:00;;;;;;;5.30;4.40;;;;;;;29.87;38.93;101050.43;104012;1285;61393;-81
2023/08/20 06:08:26;;;;;;;5.80;4.40;;;;;;;29.87;38.84;101048.02;103845;1289;61297;-82
2023/08/20 06:10:52;;;;;;;7.30;4.70;;;;;;;29.88;39.00;101048.13;103736;1284;62598;-81
2023/08/20 06:13:18;;;;;;;5.50;4.50;;;;;;;29.89;38.81;101045.52;103728;1290;61360;-82
2023/08/20 06:15:43;;;;;;;6.10;4.40;;;;;;;29.90;38.80;101048.85;103738;1285;61384;-81
2023/08/20 06:18:09;;;;;;;6.00;4.90;;;;;;;29.90;38.84;101051.67;103884;1285;61408;-81
2023/08/20 06:20:34;;;;;;;5.70;4.60;;;;;;;29.91;38.86;101053.08;103671;1284;62022;-81
2023/08/20 06:23:00;;;;;;;6.80;4.70;;;;;;;29.92;38.80;101052.05;103797;1284;61408;-81
2023/08/20 06:25:26;;;;;;;5.80;4.40;;;;;;;29.92;38.86;101050.05;103665;1288;65634;-81
2023/08/20 06:27:52;;;;;;;6.30;4.70;;;;;;;29.93;38.74;101052.51;103742;1285;61289;-81
2023/08/20 06:30:17;;;;;;;7.30;4.60;;;;;;;29.93;38.69;101055.91;103792;1284;61477;-82
2023/08/20 06:32:46;;;;;;;5.90;4.60;;;;;;;29.94;38.67;101054.40;103800;1285;61396;-82
2023/08/20 06:35:12;;;;;;;5.90;4.60;;;;;;;29.94;38.70;101050.95;103695;1284;61386;-82
2023/08/20 06:37:38;;;;;;;5.80;5.00;;;;;;;29.95;38.76;101053.95;103894;1287;61337;-81
2023/08/20 06:40:05;;;;;;;5.60;4.60;;;;;;;29.96;38.84;101057.13;103341;1285;344251;-81
2023/08/20 06:42:31;;;;;;;5.60;4.50;;;;;;;29.97;38.83;101057.42;103688;1284;61284;-82
2023/08/20 06:44:56;;;;;;;6.10;4.70;;;;;;;29.97;38.62;101057.19;103572;1290;61383;-81
2023/08/20 06:47:22;;;;;;;7.30;4.50;;;;;;;29.97;38.74;101058.41;103618;1284;61385;-82
2023/08/20 06:49:49;;;;;;;6.10;4.60;;;;;;;29.97;38.72;101054.60;103560;1290;61380;-82
2023/08/20 06:52:16;;;;;;;6.60;4.80;;;;;;;29.98;38.70;101057.40;103540;1285;62274;-81
2023/08/20 06:54:42;;;;;;;6.30;4.60;;;;;;;29.99;38.54;101058.28;103637;1285;61451;-82
2023/08/20 06:57:07;;;;;;;5.40;4.30;;;;;;;29.99;38.63;101059.52;103794;1290;61408;-81
2023/08/20 06:59:33;;;;;;;5.70;4.40;;;;;;;29.99;38.67;101057.08;103610;1285;61436;-81
2023/08/20 07:01:58;;;;;;;4.80;4.20;;;;;;;30.00;38.67;101059.02;103687;1284;61290;-81
2023/08/20 07:04:24;;;;;;;5.50;4.50;;;;;;;30.00;38.64;101056.13;103722;1285;61416;-82
2023/08/20 07:06:51;;;;;;;7.50;4.40;;;;;;;30.01;38.67;101055.67;103655;1287;61402;-81
2023/08/20 07:09:17;;;;;;;7.70;4.80;;;;;;;30.01;38.53;101055.33;103630;1289;61402;-81
2023/08/20 07:11:43;;;;;;;6.30;4.90;;;;;;;30.01;38.75;101060.16;103798;1285;61495;-81
2023/08/20 07:14:08;;;;;;;5.80;4.40;;;;;;;30.01;38.56;101057.62;103672;1287;61469;-82
2023/08/20 07:16:34;;;;;;;5.50;4.70;;;;;;;30.03;38.66;101053.88;103768;1285;61464;-81
2023/08/20 07:19:00;;;;;;;5.50;4.20;;;;;;;30.03;38.51;101060.72;103607;1285;61558;-81
2023/08/20 07:21:25;;;;;;;5.50;4.20;;;;;;;30.03;38.48;101054.19;103678;1284;61390;-81
2023/08/20 07:23:51;;;;;;;5.40;4.40;;;;;;;30.04;38.51;101055.92;103659;1285;61389;-81
2023/08/20 07:26:16;;;;;;;6.30;4.80;;;;;;;30.04;38.55;101056.27;103742;1290;61336;-82
2023/08/20 07:28:59;;;;;;;5.90;4.60;;;;;;;30.04;38.59;101056.58;103707;1284;61391;-81
2023/08/20 07:31:26;;;;;;;5.90;4.50;;;;;;;30.04;38.65;101053.91;103623;1285;61451;-81
2023/08/20 07:33:52;;;;;;;6.00;4.90;;;;;;;30.04;38.48;101047.89;103600;1288;61269;-81
2023/08/20 07:36:19;;;;;;;6.00;4.70;;;;;;;30.05;38.43;101043.67;103696;1285;61370;-81
2023/08/20 07:38:45;;;;;;;5.50;4.30;;;;;;;30.04;38.49;101046.03;103648;1290;61402;-81
2023/08/20 07:41:11;;;;;;;4.60;4.10;;;;;;;30.06;38.63;101046.48;103750;1285;61716;-82
2023/08/20 07:43:40;;;;;;;5.60;4.70;;;;;;;30.05;38.60;101042.70;103589;1284;61398;-83
2023/08/20 07:46:06;;;;;;;5.50;4.40;;;;;;;30.05;38.46;101038.88;103419;1286;63774;-81
2023/08/20 07:48:32;;;;;;;6.50;4.90;;;;;;;30.06;38.43;101036.46;103659;1290;65824;-81
2023/08/20 07:50:58;;;;;;;5.50;4.50;;;;;;;30.06;38.52;101032.96;103617;1284;61532;-81
2023/08/20 07:53:23;;;;;;;6.00;4.30;;;;;;;30.07;38.43;101032.92;103591;1285;61345;-81
2023/08/20 07:55:49;;;;;;;4.90;4.40;;;;;;;30.06;38.42;101029.35;103756;1284;62017;-81
2023/08/20 07:58:15;;;;;;;5.20;4.60;;;;;;;30.06;38.37;101028.44;103680;1284;61294;-82
2023/08/20 08:00:41;;;;;;;5.80;5.10;;;;;;;30.06;38.47;101029.50;103648;1285;66068;-81
2023/08/20 08:03:07;;;;;;;5.70;4.60;;;;;;;30.07;38.46;101028.69;103649;1290;61299;-81
2023/08/20 08:05:33;;;;;;;5.70;4.70;;;;;;;30.07;38.42;101025.83;103597;1285;61445;-81
2023/08/20 08:07:59;;;;;;;5.50;4.30;;;;;;;30.07;38.46;101023.95;103671;1290;61437;-82
2023/08/20 08:10:24;;;;;;;6.00;4.60;;;;;;;30.07;38.41;101022.35;103693;1290;61506;-81
2023/08/20 08:12:50;;;;;;;6.20;4.60;;;;;;;30.08;38.46;101020.86;103697;1284;61408;-81
2023/08/20 08:15:16;;;;;;;5.00;4.20;;;;;;;30.08;38.30;101022.77;103720;1284;61387;-81
2023/08/20 08:17:41;;;;;;;5.40;4.60;;;;;;;30.08;38.37;101020.97;103619;1285;61554;-81
2023/08/20 08:20:07;;;;;;;5.60;4.40;;;;;;;30.08;38.47;101014.60;103554;1284;61344;-81
2023/08/20 08:22:34;;;;;;;5.40;4.40;;;;;;;30.08;38.39;101007.52;103583;1290;61371;-81
2023/08/20 08:25:00;;;;;;;5.40;4.50;;;;;;;30.09;38.33;101005.69;103587;1284;61458;-81
2023/08/20 08:27:26;;;;;;;5.30;4.70;;;;;;;30.09;38.42;101010.92;103669;1289;61386;-81
2023/08/20 08:29:51;;;;;;;6.10;4.70;;;;;;;30.08;38.36;101007.31;103639;1285;61250;-81
2023/08/20 08:32:17;;;;;;;5.30;4.20;;;;;;;30.08;38.38;101004.77;103651;1285;61506;-82
2023/08/20 08:34:43;;;;;;;5.10;4.60;;;;;;;30.09;38.41;101005.80;103596;1284;61392;-81
2023/08/20 08:37:08;;;;;;;5.40;4.30;;;;;;;30.09;38.27;101009.05;103516;1293;61421;-81
2023/08/20 08:39:34;;;;;;;5.80;4.50;;;;;;;30.09;38.40;101009.09;103666;1285;61346;-81
2023/08/20 08:42:04;;;;;;;5.90;4.70;;;;;;;30.10;38.58;101009.38;103578;1285;61929;-81
2023/08/20 08:44:33;;;;;;;6.60;4.90;;;;;;;30.10;38.30;101000.45;103646;1285;74439;-82
2023/08/20 08:47:00;;;;;;;5.50;4.20;;;;;;;30.10;38.45;100996.50;103650;1290;61382;-81
2023/08/20 08:49:29;;;;;;;6.00;4.50;;;;;;;30.09;38.47;101001.23;103670;1285;61280;-82
2023/08/20 08:51:58;;;;;;;5.90;4.60;;;;;;;30.09;38.50;100997.96;103517;1285;63868;-81
2023/08/20 08:54:24;;;;;;;5.20;4.50;;;;;;;30.10;38.51;100994.84;103746;1288;65870;-81
2023/08/20 08:56:50;;;;;;;5.70;4.40;;;;;;;30.09;38.46;100994.16;103547;1286;61386;-81
2023/08/20 08:59:16;;;;;;;5.90;4.80;;;;;;;30.10;38.55;100996.61;103714;1286;61405;-82
2023/08/20 09:01:41;;;;;;;6.50;4.90;;;;;;;30.10;38.43;100994.46;103617;1284;61402;-81
2023/08/20 09:04:07;;;;;;;4.80;4.30;;;;;;;30.10;38.35;100995.02;103716;1291;61487;-82
2023/08/20 09:06:46;;;;;;;5.30;4.70;;;;;;;30.11;38.47;100992.23;103790;1290;61429;-82
2023/08/20 09:09:12;;;;;;;6.30;4.70;;;;;;;30.10;38.50;100993.52;103632;1290;61389;-81
2023/08/20 09:11:42;;;;;;;5.90;4.50;;;;;;;30.11;38.39;100993.47;103618;1288;61272;-81
2023/08/20 09:14:07;;;;;;;5.20;4.60;;;;;;;30.11;38.43;100991.44;103623;1285;61377;-81
2023/08/20 09:16:34;;;;;;;5.50;4.60;;;;;;;30.11;38.50;100985.06;103627;1285;61413;-81
2023/08/20 09:19:00;;;;;;;6.20;4.70;;;;;;;30.11;38.59;100979.45;103580;1284;61460;-81
2023/08/20 09:21:29;;;;;;;6.30;5.00;;;;;;;30.12;38.42;100985.42;103798;1288;61150;-82
2023/08/20 09:23:56;;;;;;;5.10;4.10;;;;;;;30.11;38.48;100986.33;103593;1285;63836;-81
2023/08/20 09:26:22;;;;;;;5.50;4.80;;;;;;;30.11;38.62;100986.70;103303;1284;64755;-81
2023/08/20 09:28:48;;;;;;;5.80;4.70;;;;;;;30.12;38.58;100984.70;103691;1290;61802;-81
2023/08/20 09:31:17;;;;;;;5.30;4.30;;;;;;;30.11;38.56;100977.08;103601;1284;61307;-81
2023/08/20 09:33:55;;;;;;;5.50;4.70;;;;;;;30.12;38.53;100975.55;103633;1290;64000;-82
2023/08/20 09:36:31;;;;;;;6.10;4.70;;;;;;;30.12;38.47;100973.70;103802;1285;65841;-81
2023/08/20 09:38:57;;;;;;;6.50;4.20;;;;;;;30.12;38.43;100969.55;103815;1290;61413;-82
2023/08/20 09:41:25;;;;;;;5.40;4.40;;;;;;;30.12;38.46;100971.91;103625;1285;61377;-83
2023/08/20 09:43:58;;;;;;;6.00;4.70;;;;;;;30.13;38.55;100966.05;103581;1290;63907;-81
2023/08/20 09:46:27;;;;;;;5.30;4.10;;;;;;;30.13;38.56;100963.15;103631;1284;65792;-82
2023/08/20 09:48:57;;;;;;;5.70;4.50;;;;;;;30.13;38.49;100963.88;103434;1285;61399;-81
2023/08/20 09:51:28;;;;;;;5.30;4.30;;;;;;;30.13;38.38;100965.30;103643;1298;61262;-81
2023/08/20 09:54:14;;;;;;;6.10;4.70;;;;;;;30.13;38.51;100966.70;103552;1291;63896;-82
2023/08/20 09:56:40;;;;;;;5.10;4.30;;;;;;;30.13;38.60;100966.42;103642;1284;65530;-81
2023/08/20 09:59:05;;;;;;;6.40;4.50;;;;;;;30.13;38.54;100964.25;103626;1290;61842;-81
2023/08/20 10:01:31;;;;;;;5.00;4.20;;;;;;;30.13;38.53;100965.27;103717;1285;61359;-81
2023/08/20 10:03:56;;;;;;;4.70;4.20;;;;;;;30.13;38.53;100962.77;103615;1290;61412;-81
2023/08/20 10:06:23;;;;;;;5.90;4.60;;;;;;;30.13;38.45;100962.42;103711;1290;61373;-82
2023/08/20 10:08:49;;;;;;;6.00;4.50;;;;;;;30.12;38.40;100962.81;103721;1287;65971;-81
2023/08/20 10:11:15;;;;;;;5.80;4.40;;;;;;;30.13;38.44;100958.81;103928;1288;61292;-82
2023/08/20 10:13:42;;;;;;;5.60;4.30;;;;;;;30.12;38.43;100958.52;104098;1284;61302;-82
2023/08/20 10:16:08;;;;;;;4.90;4.40;;;;;;;30.12;38.46;100957.38;103822;1292;61439;-82
2023/08/20 10:18:36;;;;;;;6.00;4.30;;;;;;;30.13;38.51;100956.98;103921;1290;61295;-82
2023/08/20 10:21:02;;;;;;;5.20;4.30;;;;;;;30.13;38.66;100948.09;103717;1290;61131;-81
2023/08/20 10:23:28;;;;;;;5.50;4.20;;;;;;;30.13;38.58;100953.09;103751;1285;61415;-82
2023/08/20 10:25:54;;;;;;;4.90;4.30;;;;;;;30.14;38.51;100949.95;103771;1290;61470;-81
2023/08/20 10:28:24;;;;;;;5.70;4.30;;;;;;;30.15;38.59;100952.61;103905;1289;61379;-82
2023/08/20 10:31:25;;;;;;;5.50;4.60;;;;;;;30.14;38.51;100952.85;103871;1285;61307;-82
2023/08/20 10:33:56;;;;;;;5.30;4.70;;;;;;;30.13;38.53;100954.39;103488;1294;61288;-82
2023/08/20 10:36:24;;;;;;;5.10;4.50;;;;;;;30.14;38.46;100944.32;103537;1289;63651;-82
2023/08/20 10:38:50;;;;;;;5.30;4.70;;;;;;;30.14;38.71;100943.42;103209;1292;65946;-81
2023/08/20 10:41:16;;;;;;;6.40;4.70;;;;;;;30.14;38.49;100941.80;103504;1289;61369;-82
2023/08/20 10:43:46;;;;;;;5.50;4.50;;;;;;;30.14;38.52;100937.20;103223;1292;61438;-81
2023/08/20 10:46:26;;;;;;;5.20;4.50;;;;;;;30.14;38.47;100937.23;103126;1297;63868;-82
2023/08/20 10:48:59;;;;;;;5.90;4.50;;;;;;;30.14;38.50;100934.51;103331;1289;66043;-81
2023/08/20 10:51:34;;;;;;;4.80;4.20;;;;;;;30.14;38.38;100935.80;103180;1292;61384;-81
2023/08/20 10:54:04;;;;;;;6.10;4.40;;;;;;;30.14;38.43;100926.00;103319;1292;61395;-82
2023/08/20 10:56:45;;;;;;;5.60;4.50;;;;;;;30.13;38.46;100921.89;103377;1294;63610;-82
2023/08/20 10:59:22;;;;;;;5.30;4.50;;;;;;;30.13;38.56;100916.14;103618;1292;65781;-82
2023/08/20 11:01:49;;;;;;;5.00;4.30;;;;;;;30.13;38.44;100914.84;103171;1292;61352;-81
2023/08/20 11:04:17;;;;;;;5.90;4.60;;;;;;;30.13;38.43;100918.05;103200;1293;61790;-82
2023/08/20 11:06:43;;;;;;;5.60;4.40;;;;;;;30.14;38.56;100918.93;103183;1295;63950;-81
2023/08/20 11:09:09;;;;;;;6.10;4.70;;;;;;;30.13;38.58;100910.08;103403;1285;61388;-82
2023/08/20 11:11:34;;;;;;;5.10;4.50;;;;;;;30.13;38.46;100910.48;103728;1290;61250;-81
2023/08/20 11:14:05;;;;;;;5.50;4.50;;;;;;;30.13;38.50;100905.96;103785;1284;62342;-81
2023/08/20 11:16:30;;;;;;;5.60;4.50;;;;;;;30.13;38.48;100900.73;103648;1287;63699;-82